Time;durP1;ratioP1;P1;durP2;ratioP2;P2;SDS_P1;SDS_P2;PMS_P1;PMS_P2;Temp;Humidity;BMP_temperature;BMP_pressure;BME280_temperature;BME280_humidity;BME280_pressure;Samples;Min_cycle;Max_cycle;Signal;HPM_P1;HPM_P2
2022/09/24 00:01:17;;;;;;;27.77;24.63;;;13.30;99.90;;;;;;5053154;28;20407;-72
2022/09/24 00:03:48;;;;;;;31.27;25.45;;;13.30;99.90;;;;;;5054538;28;20040;-71
2022/09/24 00:06:14;;;;;;;30.30;26.50;;;13.30;99.90;;;;;;5052597;28;20048;-71
2022/09/24 00:08:40;;;;;;;29.58;25.02;;;13.40;99.90;;;;;;5054225;28;20287;-72
2022/09/24 00:11:07;;;;;;;30.27;27.00;;;13.30;99.90;;;;;;5038020;28;20106;-72
2022/09/24 00:13:34;;;;;;;31.40;26.63;;;13.30;99.90;;;;;;5054321;28;20131;-72
2022/09/24 00:16:08;;;;;;;33.35;26.85;;;13.30;99.90;;;;;;5051447;28;20064;-71
2022/09/24 00:18:35;;;;;;;33.00;28.30;;;13.40;99.90;;;;;;5052459;28;20037;-71
2022/09/24 00:21:09;;;;;;;32.17;28.05;;;13.40;99.90;;;;;;5070744;28;20397;-71
2022/09/24 00:23:34;;;;;;;33.45;27.98;;;13.40;99.90;;;;;;5054154;28;20043;-72
2022/09/24 00:28:44;;;;;;;32.17;27.20;;;13.30;99.90;;;;;;5052740;28;20053;-71
2022/09/24 00:31:10;;;;;;;31.38;28.08;;;13.30;99.90;;;;;;5051932;28;20123;-72
2022/09/24 00:33:35;;;;;;;38.33;30.48;;;13.20;99.90;;;;;;5037371;28;20437;-72
2022/09/24 00:36:04;;;;;;;41.03;30.35;;;13.20;99.90;;;;;;5050096;28;20037;-73
2022/09/24 00:38:31;;;;;;;34.03;29.90;;;13.20;99.90;;;;;;5036925;28;20048;-72
2022/09/24 00:40:57;;;;;;;35.13;29.50;;;13.30;99.90;;;;;;5053006;28;20036;-72
2022/09/24 00:43:35;;;;;;;38.45;31.27;;;13.40;99.90;;;;;;5052395;28;20032;-71
2022/09/24 00:46:14;;;;;;;35.53;30.60;;;13.50;99.90;;;;;;5052878;28;20045;-72
2022/09/24 00:48:41;;;;;;;37.03;30.98;;;13.50;99.90;;;;;;5053646;28;20049;-72
2022/09/24 00:51:09;;;;;;;39.22;32.38;;;13.40;99.90;;;;;;5053501;28;20044;-72
2022/09/24 00:53:35;;;;;;;37.53;32.25;;;13.50;99.90;;;;;;5053809;28;20370;-72
2022/09/24 00:56:02;;;;;;;36.85;31.45;;;13.50;99.90;;;;;;5052752;28;20067;-72
2022/09/24 00:58:32;;;;;;;40.85;32.92;;;13.50;99.90;;;;;;5053697;28;20124;-72
2022/09/24 01:01:06;;;;;;;40.80;34.03;;;13.40;99.90;;;;;;5052231;28;20037;-71
2022/09/24 01:03:38;;;;;;;37.67;32.47;;;13.40;99.90;;;;;;5052549;28;20036;-71
2022/09/24 01:06:04;;;;;;;39.60;33.13;;;13.40;99.90;;;;;;5052393;28;20040;-72
2022/09/24 01:08:30;;;;;;;42.92;36.38;;;13.40;99.90;;;;;;5036635;28;20178;-72
2022/09/24 01:11:28;;;;;;;41.55;35.17;;;13.40;99.90;;;;;;5053405;28;20047;-72
2022/09/24 01:14:03;;;;;;;40.90;34.40;;;13.40;99.90;;;;;;5053289;28;20079;-71
2022/09/24 01:16:28;;;;;;;40.38;34.70;;;13.40;99.90;;;;;;5052244;28;20447;-71
2022/09/24 01:19:24;;;;;;;43.47;37.03;;;13.40;99.90;;;;;;5053190;28;20041;-72
2022/09/24 01:22:03;;;;;;;45.33;36.88;;;13.40;99.90;;;;;;5053018;28;20036;-72
2022/09/24 01:24:44;;;;;;;47.85;37.33;;;13.40;99.90;;;;;;5053301;28;20560;-72
2022/09/24 01:27:18;;;;;;;45.65;36.53;;;13.40;99.90;;;;;;5032985;28;20077;-72
2022/09/24 01:30:05;;;;;;;44.05;37.70;;;13.40;99.90;;;;;;5041047;28;20041;-71
2022/09/24 01:32:56;;;;;;;45.72;36.88;;;13.40;99.90;;;;;;5052040;28;20048;-71
2022/09/24 01:35:25;;;;;;;43.53;36.67;;;13.40;99.90;;;;;;5051264;28;20043;-72
2022/09/24 01:38:00;;;;;;;48.55;38.92;;;13.50;99.90;;;;;;5052610;28;20098;-71
2022/09/24 01:40:27;;;;;;;46.83;38.60;;;13.40;99.90;;;;;;5052760;28;20052;-72
2022/09/24 01:42:55;;;;;;;48.35;37.25;;;13.50;99.90;;;;;;5052621;28;20048;-71
2022/09/24 01:45:21;;;;;;;46.47;38.10;;;13.50;99.90;;;;;;5051330;28;20037;-71
2022/09/24 01:47:48;;;;;;;43.63;36.35;;;13.60;99.90;;;;;;5051731;28;20049;-71
2022/09/24 01:50:17;;;;;;;40.95;36.53;;;13.60;99.90;;;;;;5032434;28;20086;-72
2022/09/24 01:52:52;;;;;;;42.15;35.92;;;13.60;99.90;;;;;;5032427;28;20139;-72
2022/09/24 01:55:20;;;;;;;44.95;37.08;;;13.60;99.90;;;;;;5037107;28;20396;-72
2022/09/24 01:57:51;;;;;;;45.35;37.17;;;13.70;99.90;;;;;;5052345;28;20045;-70
2022/09/24 02:00:18;;;;;;;42.55;36.83;;;13.60;99.90;;;;;;5041231;28;20126;-71
2022/09/24 02:02:54;;;;;;;44.72;36.80;;;13.60;99.90;;;;;;5048737;28;20564;-71
2022/09/24 02:05:35;;;;;;;43.90;37.78;;;13.60;99.90;;;;;;5039630;28;20086;-72
2022/09/24 02:08:21;;;;;;;42.63;37.17;;;13.60;99.90;;;;;;5035616;28;20072;-71
2022/09/24 02:10:50;;;;;;;42.03;36.90;;;13.60;99.90;;;;;;5051597;28;20045;-72
2022/09/24 02:13:19;;;;;;;40.65;36.22;;;13.60;99.90;;;;;;5035471;28;20080;-72
2022/09/24 02:15:49;;;;;;;42.08;36.13;;;13.50;99.90;;;;;;5051204;28;20111;-72
2022/09/24 02:18:18;;;;;;;40.13;35.05;;;13.60;99.90;;;;;;5051976;28;20051;-72
2022/09/24 02:20:46;;;;;;;41.60;36.08;;;13.60;99.90;;;;;;5051233;28;20037;-71
2022/09/24 02:23:15;;;;;;;42.92;36.08;;;13.60;99.90;;;;;;5051874;28;20037;-71
2022/09/24 02:25:56;;;;;;;42.67;36.28;;;13.50;99.90;;;;;;5050535;28;20036;-71
2022/09/24 02:28:22;;;;;;;40.38;34.97;;;13.50;99.90;;;;;;5050998;28;20041;-72
2022/09/24 02:30:57;;;;;;;40.95;35.92;;;13.60;99.90;;;;;;5034736;28;20032;-71
2022/09/24 02:36:10;;;;;;;39.25;34.33;;;13.50;99.90;;;;;;5050579;28;20045;-72
2022/09/24 02:38:36;;;;;;;34.63;30.27;;;13.60;99.90;;;;;;5051791;28;20033;-71
2022/09/24 02:41:02;;;;;;;41.95;35.50;;;13.60;99.90;;;;;;5052104;28;20433;-72
2022/09/24 02:43:28;;;;;;;39.88;35.45;;;13.60;99.90;;;;;;5051320;28;20033;-72
2022/09/24 02:45:53;;;;;;;40.15;35.50;;;13.60;99.90;;;;;;5050962;28;20481;-72
2022/09/24 02:48:19;;;;;;;40.38;36.03;;;13.60;99.90;;;;;;5035052;28;20041;-71
2022/09/24 02:50:45;;;;;;;43.92;36.88;;;13.60;99.90;;;;;;5051686;28;20044;-71
2022/09/24 02:53:10;;;;;;;42.72;37.17;;;13.60;99.90;;;;;;5051699;28;20044;-71
2022/09/24 02:55:36;;;;;;;44.83;37.63;;;13.60;99.90;;;;;;5050890;28;20112;-71
2022/09/24 02:58:02;;;;;;;42.92;38.30;;;13.60;99.90;;;;;;5051624;28;20080;-72
2022/09/24 03:00:27;;;;;;;41.50;36.33;;;13.60;99.90;;;;;;5048632;28;20528;-71
2022/09/24 03:02:53;;;;;;;39.33;35.08;;;13.60;99.90;;;;;;5034303;28;20029;-72
2022/09/24 03:05:20;;;;;;;41.72;35.67;;;13.60;99.90;;;;;;5035542;28;20040;-72
2022/09/24 03:07:45;;;;;;;41.03;35.95;;;13.60;99.90;;;;;;5039073;28;20052;-72
2022/09/24 03:10:11;;;;;;;42.75;36.45;;;13.60;99.90;;;;;;5071523;28;20037;-72
2022/09/24 03:12:37;;;;;;;39.92;34.88;;;13.60;99.90;;;;;;5039039;28;20412;-72
2022/09/24 03:15:03;;;;;;;39.30;33.85;;;13.60;99.90;;;;;;5054411;28;20061;-72
2022/09/24 03:17:29;;;;;;;43.55;36.33;;;13.50;99.90;;;;;;5051186;28;20045;-71
2022/09/24 03:19:55;;;;;;;42.05;36.25;;;13.50;99.90;;;;;;5047637;28;20041;-71
2022/09/24 03:22:20;;;;;;;39.63;34.00;;;13.50;99.90;;;;;;5055253;28;20143;-71
2022/09/24 03:24:46;;;;;;;33.88;30.08;;;13.50;99.90;;;;;;5054509;28;20037;-71
2022/09/24 03:27:11;;;;;;;35.95;32.08;;;13.50;99.90;;;;;;5055190;28;20047;-72
2022/09/24 03:32:21;;;;;;;40.92;34.75;;;13.50;99.90;;;;;;5042184;28;20080;-71
2022/09/24 03:34:47;;;;;;;40.20;35.40;;;13.50;99.90;;;;;;5053655;28;20072;-71
2022/09/24 03:37:12;;;;;;;42.25;35.92;;;13.50;99.90;;;;;;5054939;28;20403;-71
2022/09/24 03:39:38;;;;;;;43.17;37.28;;;13.50;99.90;;;;;;5054925;28;20041;-71
2022/09/24 03:42:04;;;;;;;39.22;34.17;;;13.50;99.90;;;;;;5071903;28;20132;-71
2022/09/24 03:44:29;;;;;;;40.63;33.90;;;13.50;99.90;;;;;;5055087;28;20067;-72
2022/09/24 03:46:55;;;;;;;42.67;35.38;;;13.50;99.90;;;;;;5053965;28;20511;-71
2022/09/24 03:49:22;;;;;;;39.78;33.40;;;13.50;99.90;;;;;;5054150;28;20071;-72
2022/09/24 03:51:49;;;;;;;39.90;33.97;;;13.60;99.90;;;;;;5054735;28;20036;-72
2022/09/24 03:54:15;;;;;;;41.83;36.72;;;13.60;99.90;;;;;;5054619;28;20037;-72
2022/09/24 03:56:41;;;;;;;43.50;36.65;;;13.60;99.90;;;;;;5053521;28;20124;-72
2022/09/24 03:59:09;;;;;;;39.50;35.30;;;13.60;99.90;;;;;;5053455;28;20049;-72
2022/09/24 04:01:36;;;;;;;38.58;33.47;;;13.60;99.90;;;;;;5037849;28;20044;-72
2022/09/24 04:04:02;;;;;;;40.75;35.33;;;13.60;99.90;;;;;;5037799;28;20473;-72
2022/09/24 04:06:28;;;;;;;40.85;35.38;;;13.60;99.90;;;;;;5053738;28;20041;-72
2022/09/24 04:08:54;;;;;;;40.03;35.63;;;13.60;99.90;;;;;;5054447;28;20524;-71
2022/09/24 04:11:20;;;;;;;42.17;37.35;;;13.60;99.90;;;;;;5054302;28;20048;-72
2022/09/24 04:13:45;;;;;;;44.67;36.53;;;13.60;99.90;;;;;;5054033;28;20507;-72
2022/09/24 04:16:11;;;;;;;42.28;35.42;;;13.60;99.90;;;;;;5052649;28;20080;-72
2022/09/24 04:18:38;;;;;;;39.08;33.20;;;13.60;99.90;;;;;;5053837;28;20489;-71
2022/09/24 04:21:04;;;;;;;40.38;34.78;;;13.60;99.90;;;;;;5054440;28;20378;-71
2022/09/24 04:23:32;;;;;;;41.65;35.20;;;13.60;99.90;;;;;;5054085;28;20170;-72
2022/09/24 04:26:01;;;;;;;41.97;34.15;;;13.60;99.90;;;;;;5052990;28;20040;-72
2022/09/24 04:28:30;;;;;;;41.05;35.63;;;13.60;99.90;;;;;;5053256;28;20049;-72
2022/09/24 04:30:56;;;;;;;42.53;34.97;;;13.60;99.90;;;;;;5037359;28;20048;-71
2022/09/24 04:33:22;;;;;;;46.60;36.28;;;13.60;99.90;;;;;;5033133;28;20037;-71
2022/09/24 04:35:48;;;;;;;42.75;35.35;;;13.60;99.90;;;;;;5044809;28;20378;-72
2022/09/24 04:38:13;;;;;;;40.47;35.20;;;13.60;99.90;;;;;;5053229;28;20037;-72
2022/09/24 04:40:39;;;;;;;42.55;35.92;;;13.60;99.90;;;;;;5053797;28;20037;-72
2022/09/24 04:43:05;;;;;;;41.42;35.72;;;13.60;99.90;;;;;;5049839;28;20036;-72
2022/09/24 04:45:32;;;;;;;40.22;34.33;;;13.60;99.90;;;;;;5051025;28;20444;-72
2022/09/24 04:47:58;;;;;;;40.45;34.45;;;13.60;99.90;;;;;;5049737;28;20040;-72
2022/09/24 04:50:26;;;;;;;41.95;34.88;;;13.60;99.90;;;;;;5051425;28;20131;-72
2022/09/24 04:52:55;;;;;;;41.55;36.10;;;13.70;99.90;;;;;;5053002;28;20032;-72
2022/09/24 04:55:22;;;;;;;45.00;36.78;;;13.70;99.90;;;;;;5070246;28;20045;-72
2022/09/24 04:57:47;;;;;;;42.90;35.70;;;13.60;99.90;;;;;;5036641;28;20406;-72
2022/09/24 05:00:16;;;;;;;44.58;36.40;;;13.60;99.90;;;;;;5052805;28;20041;-72
2022/09/24 05:02:43;;;;;;;40.90;35.33;;;13.50;99.90;;;;;;5053403;28;20120;-72
2022/09/24 05:05:09;;;;;;;42.35;35.85;;;13.50;99.90;;;;;;5052474;28;20485;-72
2022/09/24 05:07:35;;;;;;;45.15;36.83;;;13.50;99.90;;;;;;5052328;28;20044;-72
2022/09/24 05:10:01;;;;;;;42.08;34.35;;;13.50;99.90;;;;;;5040008;28;20044;-72
2022/09/24 05:12:27;;;;;;;43.25;35.53;;;13.50;99.90;;;;;;5073183;28;20055;-72
2022/09/24 05:14:52;;;;;;;43.33;35.42;;;13.50;99.90;;;;;;5043759;28;20064;-72
2022/09/24 05:17:18;;;;;;;44.78;36.97;;;13.60;99.90;;;;;;5053039;28;20045;-72
2022/09/24 05:19:44;;;;;;;49.72;39.20;;;13.60;99.90;;;;;;5033588;28;20045;-72
2022/09/24 05:22:09;;;;;;;42.60;35.40;;;13.50;99.90;;;;;;5052013;28;20044;-72
2022/09/24 05:24:35;;;;;;;44.90;37.00;;;13.50;99.90;;;;;;5050736;28;20029;-72
2022/09/24 05:27:09;;;;;;;42.65;36.70;;;13.50;99.90;;;;;;5052293;28;20504;-71
2022/09/24 05:29:36;;;;;;;41.53;35.90;;;13.50;99.90;;;;;;5050844;28;20615;-71
2022/09/24 05:32:06;;;;;;;44.28;37.08;;;13.60;99.90;;;;;;5045227;28;20404;-71
2022/09/24 05:34:32;;;;;;;44.60;36.35;;;13.60;99.90;;;;;;5049585;28;20036;-71
2022/09/24 05:36:58;;;;;;;40.33;34.05;;;13.50;99.90;;;;;;5051363;28;20045;-71
2022/09/24 05:39:24;;;;;;;41.40;34.90;;;13.60;99.90;;;;;;5034415;28;20036;-71
2022/09/24 05:41:50;;;;;;;39.00;33.13;;;13.60;99.90;;;;;;5049202;28;20041;-71
2022/09/24 05:44:19;;;;;;;36.97;31.17;;;13.50;99.90;;;;;;5048619;28;20132;-71
2022/09/24 05:46:45;;;;;;;40.13;35.05;;;13.50;99.90;;;;;;5035769;28;20040;-71
2022/09/24 05:49:11;;;;;;;44.33;35.97;;;13.50;99.90;;;;;;5034797;28;20037;-71
2022/09/24 05:51:36;;;;;;;44.03;35.88;;;13.50;99.90;;;;;;5031514;28;20485;-71
2022/09/24 05:54:02;;;;;;;44.72;37.15;;;13.50;99.90;;;;;;5044454;28;20478;-71
2022/09/24 05:56:27;;;;;;;41.38;33.97;;;13.50;99.90;;;;;;5032267;28;20074;-71
2022/09/24 05:58:53;;;;;;;41.28;34.08;;;13.50;99.90;;;;;;5032606;28;20128;-71
2022/09/24 06:01:19;;;;;;;40.30;34.10;;;13.50;99.90;;;;;;5032983;28;20033;-71
2022/09/24 06:03:44;;;;;;;43.80;35.15;;;13.50;99.90;;;;;;5034341;28;20044;-71
2022/09/24 06:06:10;;;;;;;34.33;28.77;;;13.60;99.90;;;;;;5034703;28;20082;-71
2022/09/24 06:08:36;;;;;;;40.08;33.47;;;13.60;99.90;;;;;;5051062;28;20397;-71
2022/09/24 06:11:04;;;;;;;40.85;34.00;;;13.60;99.90;;;;;;5048170;28;20059;-71
2022/09/24 06:13:32;;;;;;;40.63;33.80;;;13.60;99.90;;;;;;5049742;28;20071;-71
2022/09/24 06:16:07;;;;;;;41.42;33.53;;;13.60;99.90;;;;;;5051117;28;20627;-71
2022/09/24 06:18:34;;;;;;;41.15;34.65;;;13.60;99.90;;;;;;5035324;28;20041;-71
2022/09/24 06:21:04;;;;;;;38.92;32.83;;;13.60;99.90;;;;;;5051904;28;20037;-71
2022/09/24 06:23:30;;;;;;;37.70;32.05;;;13.60;99.90;;;;;;5052076;28;20036;-71
2022/09/24 06:25:57;;;;;;;39.45;32.22;;;13.60;99.90;;;;;;5035318;28;20163;-71
2022/09/24 06:28:24;;;;;;;37.67;32.45;;;13.60;99.90;;;;;;5051913;28;20041;-71
2022/09/24 06:30:50;;;;;;;36.00;31.00;;;13.60;99.90;;;;;;5052121;28;20051;-71
2022/09/24 06:33:15;;;;;;;38.78;32.85;;;13.70;99.90;;;;;;5051918;28;20485;-71
2022/09/24 06:35:43;;;;;;;40.47;33.05;;;13.70;99.90;;;;;;5052058;28;20051;-71
2022/09/24 06:38:17;;;;;;;41.03;33.22;;;13.70;99.90;;;;;;5051786;28;20041;-71
2022/09/24 06:40:47;;;;;;;36.85;27.80;;;13.70;99.90;;;;;;5051310;28;20538;-71
2022/09/24 06:43:14;;;;;;;34.42;25.45;;;13.70;99.90;;;;;;5050783;28;20044;-71
2022/09/24 06:45:41;;;;;;;31.42;23.23;;;13.70;99.90;;;;;;5035182;28;20045;-71
2022/09/24 06:48:12;;;;;;;30.40;22.85;;;13.80;99.90;;;;;;5051731;28;20041;-71
2022/09/24 06:50:42;;;;;;;26.38;17.20;;;13.80;99.90;;;;;;5034967;28;20041;-71
2022/09/24 06:53:09;;;;;;;29.33;18.83;;;13.80;99.90;;;;;;5035379;28;20090;-71
2022/09/24 06:55:36;;;;;;;26.98;19.00;;;13.80;99.90;;;;;;5051906;28;20041;-71
2022/09/24 06:58:13;;;;;;;23.45;16.27;;;13.80;99.90;;;;;;5034999;28;20044;-71
2022/09/24 07:00:39;;;;;;;24.42;15.40;;;13.80;99.90;;;;;;5051659;28;20049;-71
2022/09/24 07:03:09;;;;;;;24.27;13.45;;;13.90;99.90;;;;;;5035253;28;20044;-71
2022/09/24 07:05:35;;;;;;;18.92;10.77;;;13.90;99.90;;;;;;5035149;28;20378;-71
2022/09/24 07:08:00;;;;;;;20.10;7.72;;;13.90;99.90;;;;;;5035053;28;20044;-71
2022/09/24 07:10:26;;;;;;;15.23;7.53;;;13.90;99.90;;;;;;5051533;28;20044;-71
2022/09/24 07:12:52;;;;;;;16.42;5.95;;;13.90;99.90;;;;;;5050792;28;20098;-71
2022/09/24 07:15:18;;;;;;;14.65;5.95;;;13.90;99.90;;;;;;5049614;28;20080;-71
2022/09/24 07:17:44;;;;;;;13.35;4.90;;;14.00;99.90;;;;;;5051516;28;20037;-71
2022/09/24 07:20:09;;;;;;;13.07;4.05;;;14.00;99.90;;;;;;5051470;28;20033;-71
2022/09/24 07:22:39;;;;;;;15.38;4.68;;;14.00;99.90;;;;;;5035134;28;20045;-71
2022/09/24 07:25:10;;;;;;;12.95;3.38;;;14.00;99.90;;;;;;5034846;28;20107;-71
2022/09/24 07:27:36;;;;;;;9.85;2.42;;;14.10;99.90;;;;;;5051306;28;20485;-71
2022/09/24 07:30:05;;;;;;;9.48;2.30;;;14.10;99.90;;;;;;5034793;28;20102;-71
2022/09/24 07:32:30;;;;;;;11.95;2.55;;;14.10;99.90;;;;;;5051274;28;20041;-71
2022/09/24 07:34:56;;;;;;;16.73;3.05;;;14.10;99.90;;;;;;5051236;28;20095;-71
2022/09/24 07:37:21;;;;;;;11.63;2.40;;;14.10;99.90;;;;;;5051322;28;20037;-71
2022/09/24 07:39:47;;;;;;;10.65;2.20;;;14.10;99.90;;;;;;5051293;28;20044;-71
2022/09/24 07:42:12;;;;;;;12.48;2.30;;;14.10;99.90;;;;;;5033462;28;20033;-71
2022/09/24 07:44:38;;;;;;;13.32;2.33;;;14.10;99.90;;;;;;5032957;28;20059;-71
2022/09/24 07:47:04;;;;;;;12.38;2.50;;;14.10;99.90;;;;;;5051101;28;20041;-70
2022/09/24 07:49:31;;;;;;;10.23;2.42;;;14.10;99.90;;;;;;5051477;28;20401;-71
2022/09/24 07:51:58;;;;;;;10.80;2.25;;;14.10;99.90;;;;;;5051776;28;20055;-70
2022/09/24 07:54:25;;;;;;;12.02;2.03;;;14.20;99.90;;;;;;5054735;28;20524;-70
2022/09/24 07:56:50;;;;;;;8.30;1.58;;;14.20;99.90;;;;;;5037913;28;20048;-78
2022/09/24 07:59:18;;;;;;;9.48;2.38;;;14.20;99.90;;;;;;5053554;28;20032;-70
2022/09/24 08:01:44;;;;;;;10.15;1.83;;;14.40;99.90;;;;;;5034933;28;20170;-70
2022/09/24 08:04:09;;;;;;;12.10;1.90;;;14.40;99.90;;;;;;5053057;28;20124;-70
2022/09/24 08:06:35;;;;;;;8.25;1.70;;;14.40;99.90;;;;;;5043965;28;20045;-70
2022/09/24 08:09:02;;;;;;;8.32;1.90;;;14.40;99.90;;;;;;5049615;28;20041;-70
2022/09/24 08:11:28;;;;;;;13.93;2.50;;;14.50;99.90;;;;;;5053033;28;20040;-70
2022/09/24 08:13:56;;;;;;;10.70;1.60;;;14.50;99.90;;;;;;5052139;28;20474;-70
2022/09/24 08:16:22;;;;;;;10.68;1.60;;;14.50;99.90;;;;;;5053665;28;20104;-70
2022/09/24 08:18:47;;;;;;;7.93;1.75;;;14.50;99.90;;;;;;5053845;28;20037;-70
2022/09/24 08:21:14;;;;;;;6.75;1.40;;;14.50;99.90;;;;;;5053879;28;20030;-70
2022/09/24 08:23:41;;;;;;;9.95;1.38;;;14.60;99.90;;;;;;5053179;28;20029;-70
2022/09/24 08:26:07;;;;;;;7.22;1.52;;;14.60;99.90;;;;;;5053528;28;20198;-70
2022/09/24 08:28:33;;;;;;;7.13;1.60;;;14.60;99.90;;;;;;5052644;28;20048;-70
2022/09/24 08:31:07;;;;;;;7.50;1.55;;;14.60;99.90;;;;;;5053703;28;20037;-70
2022/09/24 08:33:34;;;;;;;8.70;1.40;;;14.60;99.90;;;;;;5053335;28;20037;-70
2022/09/24 08:36:01;;;;;;;8.60;1.60;;;14.70;99.90;;;;;;5036936;28;20051;-70
2022/09/24 08:38:26;;;;;;;7.32;1.60;;;14.60;99.90;;;;;;5052586;28;20067;-70
2022/09/24 08:41:01;;;;;;;6.03;1.30;;;14.70;99.90;;;;;;5019840;28;20032;-70
2022/09/24 08:43:51;;;;;;;5.00;1.20;;;14.70;99.90;;;;;;5037504;28;20052;-70
2022/09/24 08:49:39;;;;;;;9.32;1.50;;;14.70;99.90;;;;;;5051207;28;20040;-70
2022/09/24 08:52:31;;;;;;;9.90;1.80;;;14.70;99.90;;;;;;5051370;28;20033;-70
2022/09/24 08:55:02;;;;;;;8.40;1.40;;;14.70;99.90;;;;;;5052338;28;20037;-71
2022/09/24 08:57:32;;;;;;;6.22;1.30;;;14.80;99.90;;;;;;5052804;28;20076;-70
2022/09/24 08:59:57;;;;;;;9.52;1.55;;;14.80;99.90;;;;;;5051489;28;20051;-70
2022/09/24 09:02:40;;;;;;;7.85;1.60;;;14.80;99.90;;;;;;5051573;28;20036;-70
2022/09/24 09:05:16;;;;;;;9.00;1.50;;;14.90;99.90;;;;;;5065894;28;20045;-70
2022/09/24 09:07:55;;;;;;;10.15;1.73;;;14.90;99.90;;;;;;5053550;28;20044;-70
2022/09/24 09:10:27;;;;;;;9.30;1.88;;;14.90;99.90;;;;;;5039305;28;20045;-70
2022/09/24 09:13:05;;;;;;;7.60;1.35;;;14.90;99.90;;;;;;5029676;28;20044;-70
2022/09/24 09:15:38;;;;;;;7.20;1.38;;;15.00;99.90;;;;;;5018680;28;20053;-70
2022/09/24 09:18:13;;;;;;;10.77;1.90;;;14.90;99.90;;;;;;5051203;28;20037;-70
2022/09/24 09:20:40;;;;;;;10.02;1.65;;;15.00;99.90;;;;;;5044388;28;20037;-70
2022/09/24 09:23:17;;;;;;;8.68;1.77;;;15.00;99.90;;;;;;5033367;28;20115;-70
2022/09/24 09:26:01;;;;;;;9.95;1.70;;;14.90;99.90;;;;;;5035540;28;20087;-70
2022/09/24 09:28:27;;;;;;;9.05;1.90;;;14.90;99.90;;;;;;5065802;28;20049;-70
2022/09/24 09:31:17;;;;;;;7.50;1.80;;;14.90;99.90;;;;;;5030894;28;20041;-70
2022/09/24 09:33:49;;;;;;;10.13;1.55;;;15.00;99.90;;;;;;5045810;28;20044;-70
2022/09/24 09:36:30;;;;;;;11.35;1.50;;;15.00;99.90;;;;;;5042450;28;20037;-70
2022/09/24 09:39:04;;;;;;;12.57;2.25;;;15.00;99.90;;;;;;5046800;28;20127;-70
2022/09/24 09:41:42;;;;;;;10.75;2.03;;;14.90;99.90;;;;;;5050498;28;20067;-70
2022/09/24 09:44:31;;;;;;;10.40;2.15;;;14.90;99.90;;;;;;5068337;28;20037;-70
2022/09/24 09:47:32;;;;;;;9.52;1.65;;;15.00;99.90;;;;;;5045635;28;20060;-70
2022/09/24 09:50:05;;;;;;;8.75;1.48;;;14.90;99.90;;;;;;5023350;28;20059;-70
2022/09/24 09:52:35;;;;;;;6.30;1.35;;;15.00;99.90;;;;;;5020104;28;20048;-70
2022/09/24 09:55:04;;;;;;;10.10;1.60;;;15.00;99.90;;;;;;5067106;28;20047;-70
2022/09/24 09:57:30;;;;;;;10.32;1.58;;;15.00;99.90;;;;;;5033296;28;20064;-70
2022/09/24 09:59:56;;;;;;;10.65;1.52;;;15.00;99.90;;;;;;5050448;28;20044;-70
2022/09/24 10:02:26;;;;;;;6.13;1.40;;;15.00;99.90;;;;;;5047080;28;20067;-70
2022/09/24 10:04:54;;;;;;;9.48;1.80;;;15.00;99.90;;;;;;5049857;28;20033;-70
2022/09/24 10:07:20;;;;;;;8.95;1.45;;;14.90;99.90;;;;;;5048599;28;20044;-70
2022/09/24 10:10:15;;;;;;;7.63;1.58;;;14.90;99.90;;;;;;5046399;28;20091;-71
2022/09/24 10:12:41;;;;;;;9.77;1.88;;;14.90;99.90;;;;;;5048341;28;20454;-70
2022/09/24 10:15:18;;;;;;;8.88;1.50;;;14.80;99.90;;;;;;5038723;28;20081;-70
2022/09/24 10:17:46;;;;;;;11.65;1.83;;;14.80;99.90;;;;;;5044977;28;20049;-70
2022/09/24 10:20:26;;;;;;;5.70;1.42;;;14.80;99.90;;;;;;5063397;28;20033;-71
2022/09/24 10:22:59;;;;;;;8.10;1.38;;;14.80;99.90;;;;;;5032186;28;20055;-70
2022/09/24 10:25:28;;;;;;;6.35;1.02;;;14.90;99.90;;;;;;5047397;28;20041;-70
2022/09/24 10:30:32;;;;;;;6.57;1.23;;;14.90;99.90;;;;;;5046337;28;20036;-71
2022/09/24 10:30:57;;;;;;;6.78;1.38;;;14.90;99.90;;;;;;5046851;28;20098;-70
2022/09/24 10:33:23;;;;;;;6.50;1.00;;;14.90;99.90;;;;;;5065645;28;20410;-70
2022/09/24 10:35:50;;;;;;;7.72;1.40;;;14.80;99.90;;;;;;5050780;28;20091;-71
2022/09/24 10:38:23;;;;;;;7.40;1.25;;;14.80;99.90;;;;;;5050131;28;20041;-71
2022/09/24 10:40:49;;;;;;;2.90;1.00;;;14.70;99.90;;;;;;5058235;28;20037;-71
2022/09/24 10:43:20;;;;;;;8.65;1.42;;;14.70;99.90;;;;;;5046284;28;20038;-70
2022/09/24 10:45:57;;;;;;;6.07;1.10;;;14.70;99.90;;;;;;5040547;28;20119;-70
2022/09/24 10:48:25;;;;;;;8.95;1.30;;;14.70;99.90;;;;;;5050443;28;20098;-71
2022/09/24 10:51:11;;;;;;;8.60;1.10;;;14.80;99.90;;;;;;5024527;28;20079;-71
2022/09/24 10:53:40;;;;;;;7.57;1.20;;;14.70;99.90;;;;;;5049648;28;20045;-71
2022/09/24 10:56:25;;;;;;;6.75;1.23;;;14.70;99.90;;;;;;5014140;28;20115;-71
2022/09/24 10:59:29;;;;;;;7.03;1.20;;;14.70;99.90;;;;;;5046705;28;20045;-71
2022/09/24 11:02:34;;;;;;;8.32;1.27;;;14.70;99.90;;;;;;5049564;28;20106;-71
2022/09/24 11:05:11;;;;;;;8.65;1.55;;;14.70;99.90;;;;;;5043924;28;20110;-71
2022/09/24 11:08:02;;;;;;;7.22;1.20;;;14.70;99.90;;;;;;5047218;28;20045;-71
2022/09/24 11:10:52;;;;;;;6.18;1.30;;;14.70;99.90;;;;;;5032112;28;20124;-71
2022/09/24 11:13:55;;;;;;;9.40;1.55;;;14.70;99.90;;;;;;5042333;28;20133;-71
2022/09/24 11:16:37;;;;;;;6.45;1.40;;;14.70;99.90;;;;;;5049506;28;20187;-71
2022/09/24 11:19:29;;;;;;;7.22;1.48;;;14.70;99.90;;;;;;5046533;28;20033;-71
2022/09/24 11:22:10;;;;;;;7.32;1.17;;;14.70;99.90;;;;;;5047880;28;20156;-71
2022/09/24 11:25:03;;;;;;;10.00;1.75;;;14.70;99.90;;;;;;5033125;28;20052;-71
2022/09/24 11:27:31;;;;;;;6.03;1.30;;;14.70;99.90;;;;;;5061330;28;20048;-71
2022/09/24 11:30:13;;;;;;;6.18;1.10;;;14.70;99.90;;;;;;5047962;28;20041;-71
2022/09/24 11:33:04;;;;;;;6.95;1.30;;;14.70;99.90;;;;;;5048999;28;20040;-71
2022/09/24 11:35:44;;;;;;;7.07;1.25;;;14.70;99.90;;;;;;5051665;28;20040;-71
2022/09/24 11:38:19;;;;;;;10.30;1.40;;;14.80;99.90;;;;;;5052167;28;20040;-71
2022/09/24 11:40:47;;;;;;;6.50;1.13;;;14.80;99.90;;;;;;5034502;28;20037;-71
2022/09/24 11:43:17;;;;;;;5.65;1.27;;;14.80;99.90;;;;;;5036452;28;20504;-71
2022/09/24 11:46:04;;;;;;;6.38;1.15;;;14.80;99.90;;;;;;5053648;28;20493;-71
2022/09/24 11:48:49;;;;;;;7.25;1.65;;;14.90;99.90;;;;;;5049199;28;20037;-71
2022/09/24 11:51:46;;;;;;;6.70;1.50;;;14.90;99.90;;;;;;5045340;28;20040;-71
2022/09/24 11:54:44;;;;;;;7.25;1.35;;;14.90;99.90;;;;;;5051938;28;20440;-71
2022/09/24 11:57:15;;;;;;;6.15;1.25;;;14.80;99.90;;;;;;5032482;28;20032;-71
2022/09/24 12:00:05;;;;;;;4.83;1.20;;;14.80;99.90;;;;;;5037458;28;20052;-71
2022/09/24 12:02:41;;;;;;;5.05;1.13;;;14.70;99.90;;;;;;5051605;28;20041;-71
2022/09/24 12:05:25;;;;;;;4.40;1.00;;;14.70;99.90;;;;;;5029967;28;20105;-71
2022/09/24 12:08:00;;;;;;;10.38;1.45;;;14.80;99.90;;;;;;5053610;28;20521;-72
2022/09/24 12:10:32;;;;;;;8.68;1.48;;;14.80;99.90;;;;;;5051957;28;20163;-71
2022/09/24 12:13:22;;;;;;;7.32;1.20;;;14.70;99.90;;;;;;5053474;28;20041;-71
2022/09/24 12:15:55;;;;;;;6.55;1.30;;;14.60;99.90;;;;;;5050249;28;20413;-72
2022/09/24 12:18:37;;;;;;;6.93;1.25;;;14.70;99.90;;;;;;5052849;28;20056;-71
2022/09/24 12:21:07;;;;;;;;;;;14.70;99.90;;;;;;5049357;28;20041;-71
2022/09/24 12:23:38;;;;;;;9.07;1.20;;;14.60;99.90;;;;;;5052263;28;19917;-71
2022/09/24 12:26:05;;;;;;;7.35;1.33;;;14.60;99.90;;;;;;5052057;28;20041;-71
2022/09/24 12:34:44;;;;;;;;;;;14.60;99.90;;;;;;5053229;28;20072;-71
2022/09/24 12:37:15;;;;;;;9.77;1.65;;;14.50;99.90;;;;;;5051780;28;19920;-71
2022/09/24 12:40:07;;;;;;;7.80;1.52;;;14.50;99.90;;;;;;5049370;28;20033;-71
2022/09/24 12:42:39;;;;;;;9.27;1.58;;;14.50;99.90;;;;;;5032237;28;20056;-71
2022/09/24 12:45:18;;;;;;;6.75;1.20;;;14.50;99.90;;;;;;5033888;28;20128;-71
2022/09/24 12:48:12;;;;;;;5.95;1.20;;;14.50;99.90;;;;;;5050865;28;20039;-70
2022/09/24 12:50:38;;;;;;;8.15;1.20;;;14.50;99.90;;;;;;5046921;28;20053;-70
2022/09/24 12:53:23;;;;;;;8.98;1.52;;;14.50;99.90;;;;;;5048316;28;20395;-70
2022/09/24 12:55:49;;;;;;;8.02;1.40;;;14.50;99.90;;;;;;5048292;28;20090;-70
2022/09/24 12:58:42;;;;;;;4.57;1.15;;;14.40;99.90;;;;;;5045989;28;21413;-71
2022/09/24 13:01:23;;;;;;;9.38;1.75;;;14.40;99.90;;;;;;5051274;28;20400;-70
2022/09/24 13:04:13;;;;;;;6.35;1.25;;;14.40;99.90;;;;;;5032575;28;20036;-70
2022/09/24 13:06:40;;;;;;;9.40;2.13;;;14.40;99.90;;;;;;5052481;28;20041;-70
2022/09/24 13:09:37;;;;;;;5.82;1.15;;;14.40;99.90;;;;;;5051660;28;20072;-70
2022/09/24 13:12:15;;;;;;;4.57;1.10;;;14.30;99.90;;;;;;5052478;28;20069;-70
2022/09/24 13:14:48;;;;;;;5.88;1.10;;;14.30;99.90;;;;;;5036939;28;20133;-70